Time;durP1;ratioP1;P1;durP2;ratioP2;P2;SDS_P1;SDS_P2;PMS_P1;PMS_P2;Temp;Humidity;BMP_temperature;BMP_pressure;BME280_temperature;BME280_humidity;BME280_pressure;Samples;Min_cycle;Max_cycle;Signal;HPM_P1;HPM_P2
2023/12/30 00:00:20;;;;;;;2.83;0.30;;;7.30;99.90;;;;;;4984648;28;20415;-71
2023/12/30 00:02:48;;;;;;;5.43;0.47;;;7.30;99.90;;;;;;4969980;28;20043;-71
2023/12/30 00:05:14;;;;;;;0.10;0.03;;;7.30;99.90;;;;;;4984606;28;20046;-71
2023/12/30 00:07:40;;;;;;;3.83;0.08;;;7.30;99.90;;;;;;4980268;28;20042;-71
2023/12/30 00:10:06;;;;;;;2.28;0.43;;;7.30;99.90;;;;;;4970429;28;20053;-71
2023/12/30 00:12:31;;;;;;;1.10;0.13;;;7.30;99.90;;;;;;4986473;28;20126;-71
2023/12/30 00:14:57;;;;;;;4.72;0.52;;;7.30;99.90;;;;;;4987467;28;20402;-71
2023/12/30 00:17:23;;;;;;;0.00;0.00;;;7.30;99.90;;;;;;4970216;28;20046;-71
2023/12/30 00:19:49;;;;;;;1.55;0.15;;;7.20;99.90;;;;;;4970298;28;20038;-71
2023/12/30 00:22:15;;;;;;;1.35;0.20;;;7.20;99.90;;;;;;4983524;28;20478;-71
2023/12/30 00:24:42;;;;;;;4.65;0.28;;;7.20;99.90;;;;;;4988688;28;20119;-71
2023/12/30 00:27:08;;;;;;;2.53;0.68;;;7.10;99.90;;;;;;4987742;28;20038;-71
2023/12/30 00:29:37;;;;;;;0.55;0.20;;;7.10;99.90;;;;;;4988282;28;20065;-71
2023/12/30 00:32:03;;;;;;;0.10;0.10;;;7.10;99.90;;;;;;4987992;28;20065;-71
2023/12/30 00:34:32;;;;;;;0.93;0.40;;;7.10;99.90;;;;;;4974696;28;20038;-71
2023/12/30 00:36:57;;;;;;;8.65;1.00;;;7.00;99.90;;;;;;4989087;28;20410;-71
2023/12/30 00:39:23;;;;;;;1.55;0.30;;;7.00;99.90;;;;;;4986632;28;20125;-71
2023/12/30 00:41:49;;;;;;;0.17;0.05;;;7.10;99.90;;;;;;4990015;28;20478;-71
2023/12/30 00:44:14;;;;;;;3.40;0.47;;;7.10;99.90;;;;;;4989227;28;20082;-71
2023/12/30 00:46:40;;;;;;;0.43;0.30;;;7.10;99.90;;;;;;4989338;28;20035;-70
2023/12/30 00:49:08;;;;;;;3.40;0.10;;;7.10;99.90;;;;;;4988930;28;20146;-71
2023/12/30 00:51:34;;;;;;;0.70;0.20;;;7.10;99.90;;;;;;4987232;28;20217;-70
2023/12/30 00:54:00;;;;;;;0.20;0.00;;;7.10;99.90;;;;;;4972201;28;20054;-71
2023/12/30 00:56:26;;;;;;;0.22;0.05;;;7.10;99.90;;;;;;4988353;28;20069;-70
2023/12/30 00:58:51;;;;;;;7.03;0.25;;;7.10;99.90;;;;;;4986454;28;20121;-70
2023/12/30 01:01:17;;;;;;;0.20;0.13;;;7.00;99.90;;;;;;4988488;28;20045;-70
2023/12/30 01:03:43;;;;;;;0.80;0.30;;;7.00;99.90;;;;;;4987248;28;20125;-71
2023/12/30 01:06:08;;;;;;;0.55;0.20;;;7.00;99.90;;;;;;4985119;28;20345;-70
2023/12/30 01:08:34;;;;;;;0.93;0.05;;;7.00;99.90;;;;;;4967116;28;20479;-70
2023/12/30 01:11:00;;;;;;;0.63;0.20;;;7.00;99.90;;;;;;4985759;28;20038;-70
2023/12/30 01:13:26;;;;;;;0.10;0.10;;;7.00;99.90;;;;;;4986918;28;20038;-70
2023/12/30 01:15:51;;;;;;;0.98;0.20;;;7.00;99.90;;;;;;4972862;28;20323;-71
2023/12/30 01:18:17;;;;;;;4.68;0.40;;;7.00;99.90;;;;;;4971867;28;20077;-70
2023/12/30 01:20:43;;;;;;;1.60;0.35;;;7.00;99.90;;;;;;4988569;28;20034;-70
2023/12/30 01:23:08;;;;;;;0.00;0.00;;;6.90;99.90;;;;;;4987226;28;20042;-70
2023/12/30 01:25:37;;;;;;;0.63;0.13;;;6.90;99.90;;;;;;4972768;28;20121;-71
2023/12/30 01:28:04;;;;;;;4.15;0.13;;;6.90;99.90;;;;;;4972654;28;20044;-70
2023/12/30 01:30:29;;;;;;;0.30;0.08;;;6.90;99.90;;;;;;4970754;28;20137;-71
2023/12/30 01:32:55;;;;;;;0.00;0.00;;;6.90;99.90;;;;;;4989912;28;20133;-71
2023/12/30 01:35:21;;;;;;;0.55;0.22;;;6.90;99.90;;;;;;4984630;28;20043;-70
2023/12/30 01:37:46;;;;;;;2.10;0.40;;;6.90;99.90;;;;;;4987212;28;20041;-70
2023/12/30 01:40:12;;;;;;;0.35;0.30;;;6.90;99.90;;;;;;4989161;28;20387;-70
2023/12/30 01:42:41;;;;;;;2.38;0.32;;;6.90;99.90;;;;;;4984964;28;20121;-70
2023/12/30 01:45:07;;;;;;;1.10;0.10;;;6.90;99.90;;;;;;4985704;28;20038;-70
2023/12/30 01:47:35;;;;;;;2.55;0.47;;;6.90;99.90;;;;;;4988091;28;20038;-70
2023/12/30 01:50:02;;;;;;;1.23;0.20;;;6.90;99.90;;;;;;4987683;28;20104;-70
2023/12/30 01:52:28;;;;;;;0.85;0.45;;;6.90;99.90;;;;;;4984262;28;20054;-70
2023/12/30 01:54:54;;;;;;;3.22;0.45;;;6.80;99.90;;;;;;4973132;28;20046;-71
2023/12/30 01:57:20;;;;;;;2.05;0.10;;;6.90;99.90;;;;;;4988218;28;20073;-70
2023/12/30 01:59:47;;;;;;;0.10;0.00;;;6.90;99.90;;;;;;4989600;28;20393;-70
2023/12/30 02:02:13;;;;;;;0.80;0.13;;;6.90;99.90;;;;;;4985054;28;20042;-70
2023/12/30 02:04:39;;;;;;;0.05;0.05;;;6.90;99.90;;;;;;4988707;28;20510;-70
2023/12/30 02:07:05;;;;;;;0.68;0.25;;;6.90;99.90;;;;;;4988851;28;20046;-71
2023/12/30 02:09:31;;;;;;;4.28;0.20;;;6.90;99.90;;;;;;4987324;28;20327;-72
2023/12/30 02:11:57;;;;;;;0.28;0.28;;;6.90;99.90;;;;;;4986441;28;20042;-71
2023/12/30 02:14:24;;;;;;;0.45;0.30;;;6.90;99.90;;;;;;4987416;28;20035;-71
2023/12/30 02:16:50;;;;;;;0.90;0.30;;;6.90;99.90;;;;;;4987846;28;20113;-70
2023/12/30 02:19:16;;;;;;;4.55;0.22;;;6.90;99.90;;;;;;4987858;28;20042;-71
2023/12/30 02:21:41;;;;;;;7.93;0.65;;;6.90;99.90;;;;;;4986742;28;20164;-70
2023/12/30 02:24:07;;;;;;;2.30;0.45;;;6.90;99.90;;;;;;4971637;28;20125;-70
2023/12/30 02:26:33;;;;;;;5.85;0.30;;;6.90;99.90;;;;;;4987249;28;20046;-70
2023/12/30 02:28:58;;;;;;;3.60;0.52;;;6.90;99.90;;;;;;4971382;28;20049;-71
2023/12/30 02:31:24;;;;;;;0.98;0.28;;;6.90;99.90;;;;;;4987674;28;20074;-71
2023/12/30 02:33:50;;;;;;;7.03;0.75;;;7.00;99.90;;;;;;4987646;28;20042;-71
2023/12/30 02:36:15;;;;;;;0.20;0.10;;;7.00;99.90;;;;;;4987067;28;20108;-70
2023/12/30 02:38:41;;;;;;;0.68;0.28;;;6.90;99.90;;;;;;4986920;28;20045;-71
2023/12/30 02:41:07;;;;;;;0.00;0.00;;;7.00;99.90;;;;;;4972809;28;20253;-70
2023/12/30 02:43:46;;;;;;;0.25;0.10;;;6.90;99.90;;;;;;4986695;28;20053;-71
2023/12/30 02:46:11;;;;;;;0.22;0.03;;;6.90;99.90;;;;;;4986968;28;20498;-71
2023/12/30 02:48:37;;;;;;;0.00;0.00;;;6.90;99.90;;;;;;4985986;28;20096;-71
2023/12/30 02:51:03;;;;;;;8.18;0.40;;;6.90;99.90;;;;;;4983495;28;20517;-71
2023/12/30 02:53:28;;;;;;;3.92;0.52;;;6.90;99.90;;;;;;4985960;28;20047;-72
2023/12/30 02:55:54;;;;;;;0.35;0.28;;;6.90;99.90;;;;;;4987955;28;20053;-71
2023/12/30 02:58:20;;;;;;;0.30;0.17;;;6.90;99.90;;;;;;4986360;28;20505;-71
2023/12/30 03:00:45;;;;;;;5.93;0.57;;;6.90;99.90;;;;;;4986459;28;20056;-71
2023/12/30 03:03:11;;;;;;;5.95;0.10;;;6.90;99.90;;;;;;4986778;28;20052;-71
2023/12/30 03:05:37;;;;;;;0.05;0.05;;;6.80;99.90;;;;;;4984077;28;20038;-71
2023/12/30 03:08:03;;;;;;;4.85;0.20;;;6.90;99.90;;;;;;4987678;28;20133;-71
2023/12/30 03:10:28;;;;;;;0.57;0.30;;;6.80;99.90;;;;;;4971535;28;20057;-70
2023/12/30 03:12:54;;;;;;;2.65;0.82;;;6.90;99.90;;;;;;4987734;28;20042;-71
2023/12/30 03:15:20;;;;;;;0.22;0.13;;;6.90;99.90;;;;;;4984388;28;20403;-71
2023/12/30 03:17:46;;;;;;;0.57;0.32;;;6.90;99.90;;;;;;4986842;28;20105;-70
2023/12/30 03:20:12;;;;;;;1.17;0.15;;;6.90;99.90;;;;;;4971562;28;20042;-71
2023/12/30 03:22:37;;;;;;;5.65;0.32;;;6.90;99.90;;;;;;4986809;28;20026;-71
2023/12/30 03:25:04;;;;;;;8.05;0.43;;;6.90;99.90;;;;;;4988310;28;20041;-71
2023/12/30 03:27:29;;;;;;;3.10;0.10;;;6.90;99.90;;;;;;4987781;28;20262;-71
2023/12/30 03:29:55;;;;;;;2.03;0.20;;;6.90;99.90;;;;;;4970981;28;20053;-71
2023/12/30 03:32:20;;;;;;;4.97;0.57;;;6.90;99.90;;;;;;4987883;28;20117;-71
2023/12/30 03:34:46;;;;;;;0.52;0.10;;;6.80;99.90;;;;;;4986922;28;20070;-71
2023/12/30 03:37:12;;;;;;;0.90;0.20;;;6.90;99.90;;;;;;4970181;28;20076;-71
2023/12/30 03:39:38;;;;;;;3.00;0.95;;;6.90;99.90;;;;;;4969789;28;20038;-72
2023/12/30 03:42:04;;;;;;;7.03;0.10;;;6.90;99.90;;;;;;4987659;28;20494;-71
2023/12/30 03:44:29;;;;;;;0.57;0.38;;;6.90;99.90;;;;;;4985102;28;20336;-71
2023/12/30 03:46:55;;;;;;;2.20;0.15;;;6.90;99.90;;;;;;4988242;28;20046;-71
2023/12/30 03:49:21;;;;;;;1.17;0.40;;;6.90;99.90;;;;;;4987022;28;20038;-71
2023/12/30 03:51:46;;;;;;;0.00;0.00;;;6.90;99.90;;;;;;4971198;28;20117;-71
2023/12/30 03:54:12;;;;;;;3.47;0.47;;;6.90;99.90;;;;;;4986171;28;20093;-71
2023/12/30 03:56:39;;;;;;;0.22;0.10;;;6.90;99.90;;;;;;4967958;28;20061;-71
2023/12/30 03:59:05;;;;;;;3.45;0.25;;;6.80;99.90;;;;;;4989750;28;20042;-71
2023/12/30 04:01:30;;;;;;;1.75;0.57;;;6.80;99.90;;;;;;4974055;28;20104;-71
2023/12/30 04:03:56;;;;;;;1.05;0.20;;;6.80;99.90;;;;;;4991857;28;20120;-71
2023/12/30 04:06:22;;;;;;;2.90;0.30;;;6.80;99.90;;;;;;4988638;28;20085;-71
2023/12/30 04:08:48;;;;;;;0.50;0.20;;;6.80;99.90;;;;;;4989510;28;20039;-71
2023/12/30 04:11:14;;;;;;;0.00;0.00;;;6.80;99.90;;;;;;4989848;28;20053;-71
2023/12/30 04:13:39;;;;;;;4.07;0.52;;;6.80;99.90;;;;;;4991463;28;20446;-71
2023/12/30 04:16:07;;;;;;;0.00;0.00;;;6.80;99.90;;;;;;4988546;28;20471;-71
2023/12/30 04:18:32;;;;;;;4.28;0.10;;;6.80;99.90;;;;;;4988966;28;20092;-71
2023/12/30 04:20:59;;;;;;;1.85;0.10;;;6.70;99.90;;;;;;4988790;28;20113;-70
2023/12/30 04:23:26;;;;;;;4.00;0.10;;;6.70;99.90;;;;;;4990993;28;20510;-71
2023/12/30 04:25:51;;;;;;;0.35;0.22;;;6.70;99.90;;;;;;4988696;28;20042;-71
2023/12/30 04:28:17;;;;;;;2.20;0.30;;;6.70;99.90;;;;;;4990361;28;20036;-70
2023/12/30 04:30:43;;;;;;;2.05;0.60;;;6.70;99.90;;;;;;4989071;28;20030;-71
2023/12/30 04:33:08;;;;;;;2.78;0.28;;;6.70;99.90;;;;;;4989690;28;20045;-71
2023/12/30 04:35:34;;;;;;;0.80;0.10;;;6.70;99.90;;;;;;4989466;28;20133;-71
2023/12/30 04:38:00;;;;;;;0.32;0.30;;;6.70;99.90;;;;;;4991064;28;20030;-70
2023/12/30 04:40:26;;;;;;;8.00;0.43;;;6.70;99.90;;;;;;4987257;28;20073;-71
2023/12/30 04:42:51;;;;;;;0.00;0.00;;;6.70;99.90;;;;;;4989434;28;20104;-71
2023/12/30 04:45:17;;;;;;;1.23;0.17;;;6.70;99.90;;;;;;4990090;28;20039;-71
2023/12/30 04:47:43;;;;;;;0.63;0.15;;;6.70;99.90;;;;;;4989159;28;20046;-71
2023/12/30 04:50:09;;;;;;;2.38;0.93;;;6.60;99.90;;;;;;4990843;28;20406;-71
2023/12/30 04:52:34;;;;;;;0.38;0.00;;;6.60;99.90;;;;;;4988654;28;20117;-71
2023/12/30 04:55:00;;;;;;;1.90;0.22;;;6.60;99.90;;;;;;4973597;28;20050;-71
2023/12/30 04:57:26;;;;;;;2.30;0.80;;;6.60;99.90;;;;;;5004349;28;20038;-71
2023/12/30 04:59:51;;;;;;;1.85;0.50;;;6.50;99.90;;;;;;4990630;28;20048;-72
2023/12/30 05:02:17;;;;;;;1.20;0.20;;;6.50;99.90;;;;;;4986693;28;20402;-72
2023/12/30 05:04:43;;;;;;;0.65;0.10;;;6.40;99.90;;;;;;4989321;28;20042;-71
2023/12/30 05:07:09;;;;;;;1.15;0.17;;;6.40;99.90;;;;;;4986153;28;20112;-71
2023/12/30 05:09:35;;;;;;;3.38;0.63;;;6.40;99.90;;;;;;4977556;28;20042;-71
2023/12/30 05:12:01;;;;;;;3.60;0.60;;;6.30;99.90;;;;;;4988619;28;20042;-71
2023/12/30 05:14:27;;;;;;;5.57;0.52;;;6.30;99.90;;;;;;4989910;28;20030;-71
2023/12/30 05:16:53;;;;;;;0.00;0.00;;;6.30;99.90;;;;;;4989216;28;20403;-72
2023/12/30 05:19:19;;;;;;;0.47;0.00;;;6.30;99.90;;;;;;4988375;28;20042;-71
2023/12/30 05:21:50;;;;;;;14.25;0.73;;;6.30;99.90;;;;;;4984353;28;20034;-71
2023/12/30 05:24:16;;;;;;;1.23;0.28;;;6.20;99.90;;;;;;4990217;28;20076;-71
2023/12/30 05:26:41;;;;;;;9.73;1.23;;;6.20;99.90;;;;;;4974020;28;20078;-71
2023/12/30 05:29:07;;;;;;;3.83;0.20;;;6.20;99.90;;;;;;4988717;28;20053;-71
2023/12/30 05:31:33;;;;;;;1.55;0.35;;;6.20;99.90;;;;;;4987598;28;20042;-71
2023/12/30 05:33:58;;;;;;;2.45;0.60;;;6.20;99.90;;;;;;4986469;28;20080;-71
2023/12/30 05:36:24;;;;;;;2.15;0.15;;;6.20;99.90;;;;;;4984146;28;20077;-71
2023/12/30 05:38:50;;;;;;;2.03;0.50;;;6.20;99.90;;;;;;4989038;28;20494;-71
2023/12/30 05:41:16;;;;;;;3.38;0.20;;;6.10;99.90;;;;;;4986392;28;20038;-72
2023/12/30 05:43:41;;;;;;;4.93;0.52;;;6.10;99.90;;;;;;4986990;28;20096;-71
2023/12/30 05:46:07;;;;;;;1.23;0.08;;;6.10;99.90;;;;;;4972772;28;20049;-71
2023/12/30 05:48:33;;;;;;;1.60;0.47;;;6.10;99.90;;;;;;4971890;28;20789;-71
2023/12/30 05:51:00;;;;;;;3.65;0.47;;;6.20;99.90;;;;;;4971654;28;20137;-71
2023/12/30 05:53:27;;;;;;;3.83;0.13;;;6.10;99.90;;;;;;4985739;28;20069;-71
2023/12/30 05:55:53;;;;;;;1.80;0.13;;;6.10;99.90;;;;;;4987510;28;20551;-71
2023/12/30 05:58:18;;;;;;;0.10;0.10;;;6.20;99.90;;;;;;4985620;28;20073;-71
2023/12/30 06:00:44;;;;;;;0.00;0.00;;;6.10;99.90;;;;;;4985413;28;20486;-71
2023/12/30 06:03:10;;;;;;;3.25;0.35;;;6.10;99.90;;;;;;4986540;28;20130;-71
2023/12/30 06:05:35;;;;;;;0.20;0.00;;;6.10;99.90;;;;;;4975719;28;20065;-71
2023/12/30 06:08:01;;;;;;;4.60;0.32;;;6.10;99.90;;;;;;4983711;28;20035;-70
2023/12/30 06:10:27;;;;;;;0.98;0.20;;;6.10;99.90;;;;;;4971508;28;20146;-71
2023/12/30 06:12:52;;;;;;;2.63;0.20;;;6.10;99.90;;;;;;4981547;28;20035;-71
2023/12/30 06:15:21;;;;;;;1.65;0.22;;;6.20;99.90;;;;;;4987504;28;20467;-71
2023/12/30 06:17:46;;;;;;;1.48;0.50;;;6.20;99.90;;;;;;4976204;28;20050;-71
2023/12/30 06:20:12;;;;;;;0.32;0.20;;;6.10;99.90;;;;;;4971934;28;20038;-71
2023/12/30 06:22:38;;;;;;;0.00;0.00;;;6.10;99.90;;;;;;4985153;28;20166;-71
2023/12/30 06:25:03;;;;;;;1.88;0.35;;;6.20;99.90;;;;;;4987170;28;20065;-71
2023/12/30 06:27:29;;;;;;;1.45;0.68;;;6.20;99.90;;;;;;4987474;28;20054;-71
2023/12/30 06:29:55;;;;;;;0.00;0.00;;;6.20;99.90;;;;;;4986629;28;20937;-71
2023/12/30 06:32:21;;;;;;;1.05;0.03;;;6.20;99.90;;;;;;4987081;28;20041;-71
2023/12/30 06:34:46;;;;;;;3.17;0.32;;;6.20;99.90;;;;;;4986047;28;20518;-71
2023/12/30 06:37:12;;;;;;;2.45;0.30;;;6.20;99.90;;;;;;4967925;28;20050;-71
2023/12/30 06:39:38;;;;;;;0.00;0.00;;;6.30;99.90;;;;;;4987096;28;20058;-71
2023/12/30 06:42:04;;;;;;;0.95;0.30;;;6.30;99.90;;;;;;4987463;28;20050;-70
2023/12/30 06:44:29;;;;;;;0.50;0.28;;;6.40;99.90;;;;;;4971196;28;20070;-70
2023/12/30 06:46:55;;;;;;;0.60;0.20;;;6.40;99.90;;;;;;4986647;28;20078;-71
2023/12/30 06:49:21;;;;;;;0.32;0.20;;;6.50;99.90;;;;;;4986446;28;20178;-71
2023/12/30 06:51:46;;;;;;;4.35;0.35;;;6.60;99.90;;;;;;4985337;28;20510;-71
2023/12/30 06:54:12;;;;;;;3.42;0.45;;;6.60;99.90;;;;;;4987060;28;20054;-71
2023/12/30 06:56:38;;;;;;;4.88;0.25;;;6.60;99.90;;;;;;4986942;28;20038;-71
2023/12/30 06:59:04;;;;;;;0.52;0.05;;;6.60;99.90;;;;;;4970964;28;20043;-71
2023/12/30 07:01:29;;;;;;;0.00;0.00;;;6.60;99.90;;;;;;4985567;28;20031;-70
2023/12/30 07:03:55;;;;;;;1.95;0.20;;;6.60;99.90;;;;;;4987112;28;20085;-71
2023/12/30 07:06:21;;;;;;;0.47;0.10;;;6.50;99.90;;;;;;4985849;28;20462;-70
2023/12/30 07:08:47;;;;;;;3.50;0.20;;;6.50;99.90;;;;;;4967759;28;20606;-71
2023/12/30 07:11:13;;;;;;;1.65;0.30;;;6.40;99.90;;;;;;4984639;28;20130;-71
2023/12/30 07:13:38;;;;;;;7.68;0.88;;;6.30;99.90;;;;;;4982752;28;20047;-70
2023/12/30 07:16:04;;;;;;;0.45;0.30;;;6.20;99.90;;;;;;4987404;28;20035;-71
2023/12/30 07:18:30;;;;;;;2.08;0.75;;;6.20;99.90;;;;;;4986184;28;20046;-71
2023/12/30 07:20:56;;;;;;;0.35;0.32;;;6.00;99.90;;;;;;4970923;28;20125;-70
2023/12/30 07:23:21;;;;;;;0.10;0.00;;;5.90;99.90;;;;;;4984898;28;20054;-71
2023/12/30 07:25:51;;;;;;;2.33;0.43;;;5.90;99.90;;;;;;4985983;28;20148;-71
2023/12/30 07:28:16;;;;;;;0.68;0.28;;;5.80;99.90;;;;;;4979893;28;20558;-71
2023/12/30 07:30:42;;;;;;;1.75;0.10;;;5.70;99.90;;;;;;4978202;28;20338;-71
2023/12/30 07:33:08;;;;;;;1.73;0.30;;;5.70;99.90;;;;;;4984852;28;20061;-71
2023/12/30 07:35:33;;;;;;;0.00;0.00;;;5.60;99.90;;;;;;4981819;28;20181;-71
2023/12/30 07:37:59;;;;;;;4.03;0.47;;;5.60;99.90;;;;;;4985812;28;20042;-71
2023/12/30 07:40:25;;;;;;;0.25;0.13;;;5.50;99.90;;;;;;4986330;28;20053;-71
2023/12/30 07:42:51;;;;;;;0.00;0.00;;;5.50;99.90;;;;;;4986697;28;20039;-71
2023/12/30 07:45:16;;;;;;;1.85;0.38;;;5.50;99.90;;;;;;4984938;28;20042;-72
2023/12/30 07:47:42;;;;;;;0.30;0.10;;;5.40;99.90;;;;;;4971442;28;20112;-71
2023/12/30 07:50:08;;;;;;;0.10;0.10;;;5.40;99.90;;;;;;4984893;28;20049;-71
2023/12/30 07:52:34;;;;;;;0.82;0.25;;;5.40;99.90;;;;;;4985791;28;20042;-71
2023/12/30 07:55:00;;;;;;;2.80;0.40;;;5.40;99.90;;;;;;4969284;28;20411;-71
2023/12/30 07:57:25;;;;;;;0.20;0.10;;;5.30;99.90;;;;;;4985883;28;20045;-71
2023/12/30 07:59:51;;;;;;;1.33;0.20;;;5.30;99.90;;;;;;4967222;28;20170;-71
2023/12/30 08:02:18;;;;;;;0.40;0.17;;;5.30;99.90;;;;;;4983879;28;20074;-71
2023/12/30 08:04:44;;;;;;;0.43;0.20;;;5.30;99.90;;;;;;4971476;28;20154;-71
2023/12/30 08:07:10;;;;;;;0.60;0.20;;;5.30;99.90;;;;;;4980223;28;20483;-71
2023/12/30 08:09:38;;;;;;;2.45;0.95;;;5.40;99.90;;;;;;4987203;28;20069;-71
2023/12/30 08:12:04;;;;;;;7.65;0.30;;;5.30;99.90;;;;;;4982603;28;20045;-71
2023/12/30 08:14:30;;;;;;;0.10;0.10;;;5.40;99.90;;;;;;4987175;28;20038;-71
2023/12/30 08:16:58;;;;;;;0.63;0.17;;;5.40;99.90;;;;;;4983462;28;20050;-71
2023/12/30 08:19:24;;;;;;;0.00;0.00;;;5.50;99.90;;;;;;4972767;28;20475;-71
2023/12/30 08:21:50;;;;;;;2.17;0.73;;;5.50;99.90;;;;;;4981834;28;20069;-71
2023/12/30 08:24:19;;;;;;;3.83;0.57;;;5.50;99.90;;;;;;4986197;28;20050;-71
2023/12/30 08:26:44;;;;;;;1.15;0.38;;;5.60;99.90;;;;;;4980171;28;20156;-71
2023/12/30 08:29:10;;;;;;;0.60;0.20;;;5.70;99.90;;;;;;4969960;28;20131;-71
2023/12/30 08:31:36;;;;;;;9.43;0.98;;;5.70;99.90;;;;;;4984514;28;20148;-71
2023/12/30 08:34:02;;;;;;;1.30;0.80;;;5.70;99.90;;;;;;4987112;28;20502;-71
2023/12/30 08:36:28;;;;;;;0.15;0.00;;;5.80;99.90;;;;;;4986081;28;20050;-71
2023/12/30 08:38:54;;;;;;;1.60;0.45;;;5.80;99.90;;;;;;4970923;28;20475;-71
2023/12/30 08:41:24;;;;;;;4.55;0.20;;;5.80;99.90;;;;;;4985856;28;20181;-71
2023/12/30 08:43:56;;;;;;;0.10;0.05;;;5.90;99.90;;;;;;4985119;28;20052;-71
2023/12/30 08:46:22;;;;;;;1.40;0.20;;;5.90;99.90;;;;;;4990746;28;20074;-71
2023/12/30 08:48:48;;;;;;;0.10;0.10;;;5.90;99.90;;;;;;4988580;28;20513;-71
2023/12/30 08:51:14;;;;;;;2.78;0.05;;;5.90;99.90;;;;;;4985625;28;20220;-71
2023/12/30 08:53:40;;;;;;;1.42;0.22;;;5.90;99.90;;;;;;4985675;28;20144;-71
2023/12/30 08:56:06;;;;;;;1.60;0.30;;;6.00;99.90;;;;;;4991127;28;20093;-71
2023/12/30 08:58:32;;;;;;;0.10;0.08;;;6.00;99.90;;;;;;4990356;28;20035;-71
2023/12/30 09:00:58;;;;;;;8.77;0.70;;;6.10;99.90;;;;;;4975279;28;20045;-71
2023/12/30 09:03:23;;;;;;;2.70;0.38;;;6.10;99.90;;;;;;4990499;28;20049;-71
2023/12/30 09:05:49;;;;;;;3.13;1.23;;;6.20;99.90;;;;;;4989667;28;20101;-71
2023/12/30 09:08:15;;;;;;;0.77;0.28;;;6.20;99.90;;;;;;4969497;28;20078;-71
2023/12/30 09:10:40;;;;;;;1.65;0.20;;;6.30;99.90;;;;;;4991073;28;20050;-71
2023/12/30 09:13:06;;;;;;;0.00;0.00;;;6.30;99.90;;;;;;4969500;28;20100;-71
2023/12/30 09:15:34;;;;;;;0.00;0.00;;;6.40;99.90;;;;;;4990079;28;20136;-71
2023/12/30 09:18:00;;;;;;;0.85;0.10;;;6.40;99.90;;;;;;4990960;28;20116;-71
2023/12/30 09:20:25;;;;;;;4.25;0.65;;;6.50;99.90;;;;;;4987041;28;20058;-71
2023/12/30 09:22:52;;;;;;;1.88;0.17;;;6.40;99.90;;;;;;4989028;28;20328;-71
2023/12/30 09:25:18;;;;;;;0.17;0.17;;;6.60;99.90;;;;;;4988794;28;20068;-71
2023/12/30 09:27:45;;;;;;;1.50;0.47;;;6.60;99.90;;;;;;4990730;28;20038;-71
2023/12/30 09:30:11;;;;;;;0.47;0.45;;;6.60;99.90;;;;;;4986585;28;20077;-71
2023/12/30 09:32:36;;;;;;;3.60;0.20;;;6.60;99.90;;;;;;4986375;28;20081;-71
2023/12/30 09:35:03;;;;;;;0.50;0.17;;;6.70;99.90;;;;;;4972037;28;20113;-71
2023/12/30 09:37:29;;;;;;;0.25;0.10;;;6.70;99.90;;;;;;4987968;28;20042;-71
2023/12/30 09:39:55;;;;;;;1.08;0.20;;;6.80;99.90;;;;;;4984436;28;20486;-71
2023/12/30 09:42:20;;;;;;;9.07;0.68;;;6.80;99.90;;;;;;4989878;28;20034;-71
2023/12/30 09:44:47;;;;;;;1.13;0.55;;;6.90;99.90;;;;;;4977821;28;20422;-71
2023/12/30 09:47:13;;;;;;;0.10;0.00;;;6.90;99.90;;;;;;4989996;28;20085;-71
2023/12/30 09:49:40;;;;;;;0.43;0.10;;;7.00;99.90;;;;;;4988531;28;20038;-71
2023/12/30 09:52:07;;;;;;;0.03;0.03;;;7.00;99.90;;;;;;4986990;28;20057;-71
2023/12/30 09:54:38;;;;;;;1.00;0.10;;;7.00;99.90;;;;;;4988032;28;20113;-71
2023/12/30 09:57:04;;;;;;;0.13;0.00;;;7.10;99.90;;;;;;4983827;28;20043;-71
2023/12/30 09:59:30;;;;;;;0.75;0.13;;;7.10;99.90;;;;;;4986657;28;20394;-71
2023/12/30 10:01:57;;;;;;;2.45;0.35;;;7.20;99.90;;;;;;4986558;28;20186;-71
2023/12/30 10:04:23;;;;;;;3.17;0.20;;;7.20;99.90;;;;;;4988681;28;20669;-72
2023/12/30 10:06:51;;;;;;;1.27;0.30;;;7.20;99.90;;;;;;4983870;28;20081;-72
2023/12/30 10:09:18;;;;;;;3.40;0.20;;;7.30;99.90;;;;;;4987116;28;20034;-71
2023/12/30 10:11:46;;;;;;;0.40;0.15;;;7.30;99.90;;;;;;4979268;28;20035;-72
2023/12/30 10:14:12;;;;;;;2.95;0.80;;;7.40;99.90;;;;;;4988526;28;20068;-71
2023/12/30 10:16:38;;;;;;;5.90;0.47;;;7.40;99.90;;;;;;4986013;28;20129;-71
2023/12/30 10:19:08;;;;;;;4.18;0.60;;;7.50;99.90;;;;;;4972589;28;20040;-71
2023/12/30 10:21:37;;;;;;;0.40;0.30;;;7.50;99.90;;;;;;4984714;28;20050;-71
2023/12/30 10:24:04;;;;;;;1.38;0.60;;;7.60;99.90;;;;;;4988977;28;20443;-71
2023/12/30 10:26:31;;;;;;;0.88;0.32;;;7.60;99.90;;;;;;4984287;28;20108;-72
2023/12/30 10:28:57;;;;;;;0.65;0.17;;;7.70;99.90;;;;;;4988490;28;20049;-71
2023/12/30 10:31:23;;;;;;;0.15;0.10;;;7.70;99.90;;;;;;4989393;28;20344;-72
2023/12/30 10:33:51;;;;;;;1.48;0.98;;;7.70;99.90;;;;;;4985695;28;20053;-72
2023/12/30 10:36:18;;;;;;;0.63;0.13;;;7.80;99.90;;;;;;4982097;28;21001;-71
2023/12/30 10:38:45;;;;;;;1.95;0.57;;;7.80;99.90;;;;;;4981091;28;20434;-72
2023/12/30 10:41:11;;;;;;;0.93;0.80;;;7.90;99.90;;;;;;4987743;28;20070;-71
2023/12/30 10:43:37;;;;;;;1.00;0.20;;;7.90;99.90;;;;;;4980868;28;20081;-72
2023/12/30 10:46:07;;;;;;;0.55;0.35;;;7.90;99.90;;;;;;4969328;28;20053;-72
2023/12/30 10:48:37;;;;;;;4.30;0.75;;;7.90;99.90;;;;;;4985966;28;20050;-71
2023/12/30 10:51:03;;;;;;;2.00;0.70;;;7.90;99.90;;;;;;4985549;28;20050;-71
2023/12/30 10:53:40;;;;;;;0.40;0.30;;;7.90;99.90;;;;;;4968430;28;20548;-71
2023/12/30 10:56:09;;;;;;;1.27;0.47;;;7.90;99.90;;;;;;4968532;28;21383;-72
2023/12/30 10:58:36;;;;;;;4.95;0.38;;;7.90;99.90;;;;;;4984005;28;20070;-72
2023/12/30 11:01:04;;;;;;;1.85;0.40;;;7.90;99.90;;;;;;4985001;28;20113;-72
2023/12/30 11:03:32;;;;;;;4.47;0.55;;;8.00;99.90;;;;;;4983528;28;20050;-72
2023/12/30 11:06:09;;;;;;;1.13;0.50;;;8.00;99.90;;;;;;4984999;28;20045;-71
2023/12/30 11:08:36;;;;;;;2.00;0.30;;;8.10;99.90;;;;;;4984815;28;20529;-71
2023/12/30 11:11:04;;;;;;;2.00;0.68;;;8.10;99.90;;;;;;4984531;28;20450;-68
2023/12/30 11:13:41;;;;;;;6.93;0.90;;;8.10;99.90;;;;;;4989817;28;20077;-71
2023/12/30 11:16:14;;;;;;;0.98;0.32;;;8.10;99.90;;;;;;4981760;28;20050;-67
2023/12/30 11:18:57;;;;;;;0.80;0.55;;;8.20;99.90;;;;;;4987673;28;20085;-68
2023/12/30 11:21:37;;;;;;;5.93;0.88;;;8.20;99.90;;;;;;4980723;28;20089;-72
2023/12/30 11:27:18;;;;;;;2.20;0.50;;;8.40;99.90;;;;;;4981795;28;20046;-72
2023/12/30 11:29:44;;;;;;;2.65;0.47;;;8.50;99.90;;;;;;4974685;28;20061;-72
2023/12/30 11:32:16;;;;;;;0.65;0.28;;;8.60;99.90;;;;;;4982254;28;20479;-72
2023/12/30 11:34:43;;;;;;;0.68;0.20;;;8.70;99.90;;;;;;4977770;28;20039;-72
2023/12/30 11:37:11;;;;;;;0.28;0.28;;;8.70;99.90;;;;;;4981412;28;20483;-72
2023/12/30 11:39:38;;;;;;;2.05;0.32;;;8.80;99.90;;;;;;4987417;28;20049;-72
2023/12/30 11:42:05;;;;;;;3.45;0.32;;;9.00;99.90;;;;;;4981043;28;20518;-72
2023/12/30 11:44:31;;;;;;;1.75;0.35;;;9.00;99.90;;;;;;4986357;28;20042;-72
2023/12/30 11:46:58;;;;;;;1.90;0.73;;;9.10;99.90;;;;;;4980865;28;20096;-72
2023/12/30 11:49:25;;;;;;;6.18;0.80;;;9.20;99.90;;;;;;4987403;28;20042;-72
2023/12/30 11:52:00;;;;;;;3.97;0.50;;;9.30;99.90;;;;;;4965532;28;20066;-72
2023/12/30 11:54:25;;;;;;;3.45;0.88;;;9.40;99.90;;;;;;4987289;28;20085;-72
2023/12/30 11:56:51;;;;;;;0.80;0.22;;;9.50;99.90;;;;;;4982163;28;20038;-72
2023/12/30 11:59:18;;;;;;;3.38;0.82;;;9.50;99.90;;;;;;4987095;28;20096;-72
2023/12/30 12:01:45;;;;;;;0.75;0.45;;;9.50;99.90;;;;;;4975838;28;20114;-72
2023/12/30 12:04:13;;;;;;;4.60;0.47;;;9.50;99.90;;;;;;4977831;28;20050;-72
2023/12/30 12:06:38;;;;;;;0.90;0.10;;;9.50;99.90;;;;;;4979112;28;20537;-72
2023/12/30 12:09:06;;;;;;;0.85;0.30;;;9.50;99.90;;;;;;4987399;28;20085;-72
2023/12/30 12:11:31;;;;;;;0.52;0.28;;;9.50;99.90;;;;;;4981785;28;20144;-72
2023/12/30 12:13:57;;;;;;;1.45;0.35;;;9.50;99.90;;;;;;4970579;28;20074;-72
2023/12/30 12:16:25;;;;;;;2.70;0.52;;;9.60;99.90;;;;;;4982875;28;20518;-71
2023/12/30 12:18:50;;;;;;;1.70;0.40;;;9.60;99.90;;;;;;4984488;28;20120;-72
2023/12/30 12:21:16;;;;;;;1.17;0.28;;;9.60;99.90;;;;;;4984333;28;20568;-72
2023/12/30 12:23:43;;;;;;;1.00;0.60;;;9.60;99.90;;;;;;4981867;28;20038;-72
2023/12/30 12:26:09;;;;;;;0.75;0.20;;;9.60;99.90;;;;;;4987920;28;20527;-72
2023/12/30 12:28:35;;;;;;;5.25;0.90;;;9.60;99.90;;;;;;4974056;28;20030;-72
2023/12/30 12:31:06;;;;;;;1.65;0.45;;;9.60;99.90;;;;;;4989799;28;20105;-72
2023/12/30 12:33:34;;;;;;;0.52;0.30;;;9.60;99.90;;;;;;4987544;28;20046;-71
2023/12/30 12:36:00;;;;;;;0.65;0.43;;;9.60;99.90;;;;;;4970357;28;20078;-72
2023/12/30 12:38:26;;;;;;;1.27;0.68;;;9.60;99.90;;;;;;4973209;28;20042;-72
2023/12/30 12:40:52;;;;;;;4.95;0.90;;;9.60;99.90;;;;;;4990953;28;20049;-72
2023/12/30 12:43:18;;;;;;;1.58;0.60;;;9.60;99.90;;;;;;4988818;28;20034;-72
2023/12/30 12:45:44;;;;;;;2.33;0.65;;;9.60;99.90;;;;;;4982529;28;20109;-72
2023/12/30 12:48:10;;;;;;;3.30;1.23;;;9.50;99.90;;;;;;4987811;28;20442;-72
2023/12/30 12:50:36;;;;;;;2.17;0.50;;;9.50;99.90;;;;;;4989975;28;20387;-72
2023/12/30 12:53:02;;;;;;;4.07;0.85;;;9.40;99.90;;;;;;4986379;28;20046;-72
2023/12/30 12:55:28;;;;;;;2.30;0.30;;;9.40;99.90;;;;;;4990216;28;20137;-72